sensor_id;sensor_type;location;lat;lon;timestamp;P1;durP1;ratioP1;P2;durP2;ratioP2
38859;SDS011;24609;48.316;16.174;2024-01-07T00:01:34;8.93;;;6.40;;
38859;SDS011;24609;48.316;16.174;2024-01-07T00:04:00;11.10;;;7.38;;
38859;SDS011;24609;48.316;16.174;2024-01-07T00:06:26;10.73;;;7.20;;
38859;SDS011;24609;48.316;16.174;2024-01-07T00:08:51;11.02;;;7.07;;
38859;SDS011;24609;48.316;16.174;2024-01-07T00:11:17;9.52;;;6.43;;
38859;SDS011;24609;48.316;16.174;2024-01-07T00:13:43;11.68;;;7.35;;
38859;SDS011;24609;48.316;16.174;2024-01-07T00:16:08;13.93;;;6.63;;
38859;SDS011;24609;48.316;16.174;2024-01-07T00:18:34;11.43;;;7.78;;
38859;SDS011;24609;48.316;16.174;2024-01-07T00:21:00;9.55;;;6.43;;
38859;SDS011;24609;48.316;16.174;2024-01-07T00:23:25;7.85;;;5.85;;
38859;SDS011;24609;48.316;16.174;2024-01-07T00:25:51;8.30;;;5.45;;
38859;SDS011;24609;48.316;16.174;2024-01-07T00:28:16;8.13;;;6.00;;
38859;SDS011;24609;48.316;16.174;2024-01-07T00:30:42;7.47;;;5.68;;
38859;SDS011;24609;48.316;16.174;2024-01-07T00:33:08;9.85;;;6.30;;
38859;SDS011;24609;48.316;16.174;2024-01-07T00:35:33;8.77;;;6.18;;
38859;SDS011;24609;48.316;16.174;2024-01-07T00:37:59;8.52;;;5.72;;
38859;SDS011;24609;48.316;16.174;2024-01-07T00:40:25;8.02;;;6.15;;
38859;SDS011;24609;48.316;16.174;2024-01-07T00:42:51;8.93;;;6.32;;
38859;SDS011;24609;48.316;16.174;2024-01-07T00:45:17;9.25;;;6.30;;
38859;SDS011;24609;48.316;16.174;2024-01-07T00:47:43;10.38;;;6.60;;
38859;SDS011;24609;48.316;16.174;2024-01-07T00:50:09;8.98;;;6.57;;
38859;SDS011;24609;48.316;16.174;2024-01-07T00:52:35;10.30;;;6.47;;
38859;SDS011;24609;48.316;16.174;2024-01-07T00:55:02;9.50;;;6.00;;
38859;SDS011;24609;48.316;16.174;2024-01-07T00:57:29;10.05;;;6.75;;
38859;SDS011;24609;48.316;16.174;2024-01-07T00:59:55;10.90;;;6.47;;
38859;SDS011;24609;48.316;16.174;2024-01-07T01:02:21;9.98;;;7.07;;
38859;SDS011;24609;48.316;16.174;2024-01-07T01:04:46;11.65;;;7.40;;
38859;SDS011;24609;48.316;16.174;2024-01-07T01:07:12;8.93;;;6.78;;
38859;SDS011;24609;48.316;16.174;2024-01-07T01:09:39;10.15;;;7.00;;
38859;SDS011;24609;48.316;16.174;2024-01-07T01:12:04;10.07;;;6.85;;
38859;SDS011;24609;48.316;16.174;2024-01-07T01:14:30;12.32;;;8.15;;
38859;SDS011;24609;48.316;16.174;2024-01-07T01:16:56;9.18;;;6.68;;
38859;SDS011;24609;48.316;16.174;2024-01-07T01:19:21;8.93;;;6.63;;
38859;SDS011;24609;48.316;16.174;2024-01-07T01:21:48;10.45;;;7.55;;
38859;SDS011;24609;48.316;16.174;2024-01-07T01:24:14;14.30;;;9.68;;
38859;SDS011;24609;48.316;16.174;2024-01-07T01:26:39;13.43;;;9.73;;
38859;SDS011;24609;48.316;16.174;2024-01-07T01:29:05;12.27;;;8.55;;
38859;SDS011;24609;48.316;16.174;2024-01-07T01:31:31;16.02;;;10.70;;
38859;SDS011;24609;48.316;16.174;2024-01-07T01:33:56;12.50;;;8.43;;
38859;SDS011;24609;48.316;16.174;2024-01-07T01:36:22;16.35;;;10.70;;
38859;SDS011;24609;48.316;16.174;2024-01-07T01:38:48;12.57;;;9.00;;
38859;SDS011;24609;48.316;16.174;2024-01-07T01:41:14;15.45;;;10.15;;
38859;SDS011;24609;48.316;16.174;2024-01-07T01:43:40;14.30;;;10.15;;
38859;SDS011;24609;48.316;16.174;2024-01-07T01:46:05;14.82;;;10.07;;
38859;SDS011;24609;48.316;16.174;2024-01-07T01:48:32;15.00;;;9.85;;
38859;SDS011;24609;48.316;16.174;2024-01-07T01:50:58;16.52;;;10.02;;
38859;SDS011;24609;48.316;16.174;2024-01-07T01:53:25;16.42;;;10.40;;
38859;SDS011;24609;48.316;16.174;2024-01-07T01:55:51;14.43;;;9.98;;
38859;SDS011;24609;48.316;16.174;2024-01-07T01:58:18;13.75;;;9.60;;
38859;SDS011;24609;48.316;16.174;2024-01-07T02:00:45;15.65;;;10.32;;
38859;SDS011;24609;48.316;16.174;2024-01-07T02:03:11;15.70;;;10.55;;
38859;SDS011;24609;48.316;16.174;2024-01-07T02:05:37;14.05;;;9.40;;
38859;SDS011;24609;48.316;16.174;2024-01-07T02:08:03;15.95;;;9.82;;
38859;SDS011;24609;48.316;16.174;2024-01-07T02:10:30;14.85;;;9.73;;
38859;SDS011;24609;48.316;16.174;2024-01-07T02:12:59;12.88;;;8.90;;
38859;SDS011;24609;48.316;16.174;2024-01-07T02:15:25;16.38;;;10.43;;
38859;SDS011;24609;48.316;16.174;2024-01-07T02:17:51;15.73;;;10.02;;
38859;SDS011;24609;48.316;16.174;2024-01-07T02:20:17;14.43;;;9.63;;
38859;SDS011;24609;48.316;16.174;2024-01-07T02:22:42;16.52;;;10.52;;
38859;SDS011;24609;48.316;16.174;2024-01-07T02:25:08;15.60;;;10.00;;
38859;SDS011;24609;48.316;16.174;2024-01-07T02:27:34;13.95;;;9.32;;
38859;SDS011;24609;48.316;16.174;2024-01-07T02:30:00;16.95;;;11.32;;
38859;SDS011;24609;48.316;16.174;2024-01-07T02:32:25;15.45;;;9.95;;
38859;SDS011;24609;48.316;16.174;2024-01-07T02:34:52;16.67;;;9.80;;
38859;SDS011;24609;48.316;16.174;2024-01-07T02:37:17;18.02;;;10.75;;
38859;SDS011;24609;48.316;16.174;2024-01-07T02:39:43;16.35;;;10.15;;
38859;SDS011;24609;48.316;16.174;2024-01-07T02:42:09;13.25;;;9.30;;
38859;SDS011;24609;48.316;16.174;2024-01-07T02:44:35;14.13;;;9.77;;
38859;SDS011;24609;48.316;16.174;2024-01-07T02:47:01;16.60;;;9.85;;
38859;SDS011;24609;48.316;16.174;2024-01-07T02:49:27;13.98;;;9.40;;
38859;SDS011;24609;48.316;16.174;2024-01-07T02:51:53;16.65;;;9.90;;
38859;SDS011;24609;48.316;16.174;2024-01-07T02:54:19;14.07;;;9.13;;
38859;SDS011;24609;48.316;16.174;2024-01-07T02:56:44;12.57;;;9.35;;
38859;SDS011;24609;48.316;16.174;2024-01-07T02:59:10;16.58;;;10.18;;
38859;SDS011;24609;48.316;16.174;2024-01-07T03:01:36;14.73;;;10.48;;
38859;SDS011;24609;48.316;16.174;2024-01-07T03:04:05;16.70;;;10.15;;
38859;SDS011;24609;48.316;16.174;2024-01-07T03:06:35;14.63;;;9.48;;
38859;SDS011;24609;48.316;16.174;2024-01-07T03:09:01;17.70;;;11.00;;
38859;SDS011;24609;48.316;16.174;2024-01-07T03:11:27;15.05;;;10.70;;
38859;SDS011;24609;48.316;16.174;2024-01-07T03:13:54;15.05;;;10.07;;
38859;SDS011;24609;48.316;16.174;2024-01-07T03:16:21;13.35;;;9.32;;
38859;SDS011;24609;48.316;16.174;2024-01-07T03:18:47;14.98;;;9.70;;
38859;SDS011;24609;48.316;16.174;2024-01-07T03:21:16;17.15;;;10.95;;
38859;SDS011;24609;48.316;16.174;2024-01-07T03:23:46;14.10;;;9.77;;
38859;SDS011;24609;48.316;16.174;2024-01-07T03:26:13;14.40;;;9.90;;
38859;SDS011;24609;48.316;16.174;2024-01-07T03:28:39;15.15;;;10.65;;
38859;SDS011;24609;48.316;16.174;2024-01-07T03:31:09;14.55;;;9.57;;
38859;SDS011;24609;48.316;16.174;2024-01-07T03:33:37;14.75;;;9.70;;
38859;SDS011;24609;48.316;16.174;2024-01-07T03:36:21;14.45;;;10.18;;
38859;SDS011;24609;48.316;16.174;2024-01-07T03:38:47;15.70;;;10.07;;
38859;SDS011;24609;48.316;16.174;2024-01-07T03:41:16;15.60;;;10.55;;
38859;SDS011;24609;48.316;16.174;2024-01-07T03:43:45;14.65;;;10.02;;
38859;SDS011;24609;48.316;16.174;2024-01-07T03:46:12;15.65;;;10.70;;
38859;SDS011;24609;48.316;16.174;2024-01-07T03:48:38;16.27;;;9.98;;
38859;SDS011;24609;48.316;16.174;2024-01-07T03:51:03;15.50;;;10.63;;
38859;SDS011;24609;48.316;16.174;2024-01-07T03:53:29;15.63;;;10.00;;
38859;SDS011;24609;48.316;16.174;2024-01-07T03:55:55;15.90;;;10.45;;
38859;SDS011;24609;48.316;16.174;2024-01-07T03:58:21;15.18;;;10.18;;
38859;SDS011;24609;48.316;16.174;2024-01-07T04:00:46;12.85;;;9.15;;
38859;SDS011;24609;48.316;16.174;2024-01-07T04:03:12;14.25;;;9.90;;
38859;SDS011;24609;48.316;16.174;2024-01-07T04:05:38;15.77;;;10.10;;
38859;SDS011;24609;48.316;16.174;2024-01-07T04:08:03;15.80;;;10.48;;
38859;SDS011;24609;48.316;16.174;2024-01-07T04:10:29;14.57;;;10.20;;
38859;SDS011;24609;48.316;16.174;2024-01-07T04:12:55;18.33;;;10.40;;
38859;SDS011;24609;48.316;16.174;2024-01-07T04:15:21;15.18;;;10.18;;
38859;SDS011;24609;48.316;16.174;2024-01-07T04:17:46;15.15;;;10.23;;
38859;SDS011;24609;48.316;16.174;2024-01-07T04:20:13;15.02;;;9.90;;
38859;SDS011;24609;48.316;16.174;2024-01-07T04:22:39;14.30;;;9.95;;
38859;SDS011;24609;48.316;16.174;2024-01-07T04:25:04;14.43;;;8.95;;
38859;SDS011;24609;48.316;16.174;2024-01-07T04:27:33;16.10;;;10.37;;
38859;SDS011;24609;48.316;16.174;2024-01-07T04:30:03;17.00;;;11.13;;
38859;SDS011;24609;48.316;16.174;2024-01-07T04:32:29;14.63;;;9.43;;
38859;SDS011;24609;48.316;16.174;2024-01-07T04:34:55;15.52;;;10.18;;
38859;SDS011;24609;48.316;16.174;2024-01-07T04:37:22;14.48;;;9.63;;
38859;SDS011;24609;48.316;16.174;2024-01-07T04:39:48;15.63;;;10.35;;
38859;SDS011;24609;48.316;16.174;2024-01-07T04:42:15;14.23;;;9.32;;
38859;SDS011;24609;48.316;16.174;2024-01-07T04:44:41;16.80;;;10.27;;
38859;SDS011;24609;48.316;16.174;2024-01-07T04:49:53;15.07;;;10.20;;
38859;SDS011;24609;48.316;16.174;2024-01-07T04:52:19;15.07;;;10.93;;
38859;SDS011;24609;48.316;16.174;2024-01-07T04:54:44;16.45;;;10.57;;
38859;SDS011;24609;48.316;16.174;2024-01-07T04:57:10;17.40;;;11.25;;
38859;SDS011;24609;48.316;16.174;2024-01-07T04:59:36;16.27;;;10.90;;
38859;SDS011;24609;48.316;16.174;2024-01-07T05:02:02;15.00;;;10.65;;
38859;SDS011;24609;48.316;16.174;2024-01-07T05:04:28;14.80;;;10.20;;
38859;SDS011;24609;48.316;16.174;2024-01-07T05:06:54;15.73;;;10.02;;
38859;SDS011;24609;48.316;16.174;2024-01-07T05:09:19;14.38;;;9.68;;
38859;SDS011;24609;48.316;16.174;2024-01-07T05:11:45;14.95;;;10.13;;
38859;SDS011;24609;48.316;16.174;2024-01-07T05:14:11;16.38;;;9.82;;
38859;SDS011;24609;48.316;16.174;2024-01-07T05:16:36;13.85;;;9.30;;
38859;SDS011;24609;48.316;16.174;2024-01-07T05:19:02;14.43;;;9.27;;
38859;SDS011;24609;48.316;16.174;2024-01-07T05:21:28;16.27;;;9.98;;
38859;SDS011;24609;48.316;16.174;2024-01-07T05:23:54;14.23;;;9.48;;
38859;SDS011;24609;48.316;16.174;2024-01-07T05:26:20;12.60;;;8.65;;
38859;SDS011;24609;48.316;16.174;2024-01-07T05:28:46;14.52;;;9.38;;
38859;SDS011;24609;48.316;16.174;2024-01-07T05:31:18;13.05;;;7.97;;
38859;SDS011;24609;48.316;16.174;2024-01-07T05:33:44;16.88;;;9.13;;
38859;SDS011;24609;48.316;16.174;2024-01-07T05:36:13;13.80;;;9.77;;
38859;SDS011;24609;48.316;16.174;2024-01-07T05:38:41;14.95;;;9.45;;
38859;SDS011;24609;48.316;16.174;2024-01-07T05:41:07;12.82;;;8.68;;
38859;SDS011;24609;48.316;16.174;2024-01-07T05:43:32;13.88;;;9.90;;
38859;SDS011;24609;48.316;16.174;2024-01-07T05:46:00;15.50;;;9.38;;
38859;SDS011;24609;48.316;16.174;2024-01-07T05:48:26;11.02;;;8.10;;
38859;SDS011;24609;48.316;16.174;2024-01-07T05:50:52;13.38;;;8.77;;
38859;SDS011;24609;48.316;16.174;2024-01-07T05:53:18;13.10;;;8.15;;
38859;SDS011;24609;48.316;16.174;2024-01-07T05:55:43;12.15;;;8.30;;
38859;SDS011;24609;48.316;16.174;2024-01-07T05:58:09;12.93;;;8.20;;
38859;SDS011;24609;48.316;16.174;2024-01-07T06:00:35;13.50;;;8.70;;
38859;SDS011;24609;48.316;16.174;2024-01-07T06:03:01;13.50;;;8.50;;
38859;SDS011;24609;48.316;16.174;2024-01-07T06:05:26;12.80;;;8.63;;
38859;SDS011;24609;48.316;16.174;2024-01-07T06:07:52;13.20;;;8.57;;
38859;SDS011;24609;48.316;16.174;2024-01-07T06:10:18;13.00;;;8.60;;
38859;SDS011;24609;48.316;16.174;2024-01-07T06:12:44;16.13;;;10.38;;
38859;SDS011;24609;48.316;16.174;2024-01-07T06:15:10;15.90;;;10.23;;
38859;SDS011;24609;48.316;16.174;2024-01-07T06:17:35;14.70;;;9.68;;
38859;SDS011;24609;48.316;16.174;2024-01-07T06:20:01;15.27;;;10.07;;
38859;SDS011;24609;48.316;16.174;2024-01-07T06:22:27;16.33;;;10.00;;
38859;SDS011;24609;48.316;16.174;2024-01-07T06:24:53;13.85;;;9.48;;
38859;SDS011;24609;48.316;16.174;2024-01-07T06:27:19;17.08;;;10.63;;
38859;SDS011;24609;48.316;16.174;2024-01-07T06:29:44;15.80;;;10.70;;
38859;SDS011;24609;48.316;16.174;2024-01-07T06:32:10;13.35;;;9.07;;
38859;SDS011;24609;48.316;16.174;2024-01-07T06:34:36;15.38;;;10.20;;
38859;SDS011;24609;48.316;16.174;2024-01-07T06:37:02;15.95;;;10.30;;
38859;SDS011;24609;48.316;16.174;2024-01-07T06:39:28;14.20;;;9.10;;
38859;SDS011;24609;48.316;16.174;2024-01-07T06:41:53;14.98;;;9.30;;
38859;SDS011;24609;48.316;16.174;2024-01-07T06:44:19;13.18;;;9.20;;
38859;SDS011;24609;48.316;16.174;2024-01-07T06:46:45;15.05;;;9.73;;
38859;SDS011;24609;48.316;16.174;2024-01-07T06:49:11;14.23;;;9.65;;
38859;SDS011;24609;48.316;16.174;2024-01-07T06:51:37;13.88;;;9.77;;
38859;SDS011;24609;48.316;16.174;2024-01-07T06:54:03;14.80;;;9.10;;
38859;SDS011;24609;48.316;16.174;2024-01-07T06:56:30;14.60;;;10.07;;
38859;SDS011;24609;48.316;16.174;2024-01-07T06:58:55;15.20;;;9.23;;
38859;SDS011;24609;48.316;16.174;2024-01-07T07:01:21;14.90;;;9.52;;
38859;SDS011;24609;48.316;16.174;2024-01-07T07:03:48;14.10;;;9.50;;
38859;SDS011;24609;48.316;16.174;2024-01-07T07:06:14;15.93;;;9.07;;
38859;SDS011;24609;48.316;16.174;2024-01-07T07:08:40;14.77;;;8.80;;
38859;SDS011;24609;48.316;16.174;2024-01-07T07:11:06;15.35;;;9.82;;
38859;SDS011;24609;48.316;16.174;2024-01-07T07:13:32;18.40;;;10.25;;
38859;SDS011;24609;48.316;16.174;2024-01-07T07:15:58;19.70;;;12.23;;
38859;SDS011;24609;48.316;16.174;2024-01-07T07:18:24;18.80;;;11.93;;
38859;SDS011;24609;48.316;16.174;2024-01-07T07:20:50;19.20;;;12.43;;
38859;SDS011;24609;48.316;16.174;2024-01-07T07:23:16;20.88;;;12.25;;
38859;SDS011;24609;48.316;16.174;2024-01-07T07:25:42;23.15;;;13.88;;
38859;SDS011;24609;48.316;16.174;2024-01-07T07:28:08;21.15;;;12.77;;
38859;SDS011;24609;48.316;16.174;2024-01-07T07:30:34;19.48;;;13.00;;
38859;SDS011;24609;48.316;16.174;2024-01-07T07:32:59;20.88;;;12.57;;
38859;SDS011;24609;48.316;16.174;2024-01-07T07:35:25;19.92;;;11.75;;
38859;SDS011;24609;48.316;16.174;2024-01-07T07:37:51;18.63;;;11.82;;
38859;SDS011;24609;48.316;16.174;2024-01-07T07:40:16;19.58;;;11.52;;
38859;SDS011;24609;48.316;16.174;2024-01-07T07:42:42;20.15;;;11.70;;
38859;SDS011;24609;48.316;16.174;2024-01-07T07:45:08;20.25;;;12.15;;
38859;SDS011;24609;48.316;16.174;2024-01-07T07:47:34;20.48;;;12.40;;
38859;SDS011;24609;48.316;16.174;2024-01-07T07:50:00;18.50;;;11.85;;
38859;SDS011;24609;48.316;16.174;2024-01-07T07:52:27;21.30;;;12.25;;
38859;SDS011;24609;48.316;16.174;2024-01-07T07:54:53;20.00;;;12.05;;
38859;SDS011;24609;48.316;16.174;2024-01-07T07:57:19;19.48;;;12.07;;
38859;SDS011;24609;48.316;16.174;2024-01-07T07:59:46;18.80;;;12.35;;
38859;SDS011;24609;48.316;16.174;2024-01-07T08:02:13;21.60;;;13.10;;
38859;SDS011;24609;48.316;16.174;2024-01-07T08:04:38;18.55;;;11.82;;
38859;SDS011;24609;48.316;16.174;2024-01-07T08:07:06;19.52;;;12.63;;
38859;SDS011;24609;48.316;16.174;2024-01-07T08:09:33;20.27;;;11.57;;
38859;SDS011;24609;48.316;16.174;2024-01-07T08:12:01;18.05;;;11.02;;
38859;SDS011;24609;48.316;16.174;2024-01-07T08:14:28;20.42;;;11.85;;
38859;SDS011;24609;48.316;16.174;2024-01-07T08:16:54;21.05;;;12.90;;
38859;SDS011;24609;48.316;16.174;2024-01-07T08:19:19;18.73;;;11.40;;
38859;SDS011;24609;48.316;16.174;2024-01-07T08:21:45;17.60;;;11.07;;
38859;SDS011;24609;48.316;16.174;2024-01-07T08:24:11;20.27;;;11.48;;
38859;SDS011;24609;48.316;16.174;2024-01-07T08:26:37;16.98;;;11.05;;
38859;SDS011;24609;48.316;16.174;2024-01-07T08:29:03;17.63;;;11.20;;
38859;SDS011;24609;48.316;16.174;2024-01-07T08:31:28;16.83;;;11.25;;
38859;SDS011;24609;48.316;16.174;2024-01-07T08:33:55;16.05;;;10.75;;
38859;SDS011;24609;48.316;16.174;2024-01-07T08:36:20;17.23;;;11.15;;
38859;SDS011;24609;48.316;16.174;2024-01-07T08:38:46;16.45;;;10.38;;
38859;SDS011;24609;48.316;16.174;2024-01-07T08:41:14;16.27;;;10.73;;
38859;SDS011;24609;48.316;16.174;2024-01-07T08:43:40;15.98;;;10.55;;
38859;SDS011;24609;48.316;16.174;2024-01-07T08:46:06;15.73;;;10.07;;
38859;SDS011;24609;48.316;16.174;2024-01-07T08:48:32;18.38;;;10.90;;
38859;SDS011;24609;48.316;16.174;2024-01-07T08:50:58;16.88;;;10.57;;
38859;SDS011;24609;48.316;16.174;2024-01-07T08:53:24;16.45;;;9.23;;
38859;SDS011;24609;48.316;16.174;2024-01-07T08:55:49;15.82;;;10.05;;
38859;SDS011;24609;48.316;16.174;2024-01-07T08:58:15;14.57;;;9.70;;
38859;SDS011;24609;48.316;16.174;2024-01-07T09:00:42;14.10;;;9.50;;
38859;SDS011;24609;48.316;16.174;2024-01-07T09:03:08;15.13;;;9.95;;
38859;SDS011;24609;48.316;16.174;2024-01-07T09:05:34;14.32;;;9.10;;
38859;SDS011;24609;48.316;16.174;2024-01-07T09:08:01;13.48;;;9.02;;
38859;SDS011;24609;48.316;16.174;2024-01-07T09:10:27;15.63;;;9.32;;
38859;SDS011;24609;48.316;16.174;2024-01-07T09:12:52;15.60;;;9.82;;
38859;SDS011;24609;48.316;16.174;2024-01-07T09:15:19;15.02;;;9.77;;
38859;SDS011;24609;48.316;16.174;2024-01-07T09:17:45;16.83;;;10.18;;
38859;SDS011;24609;48.316;16.174;2024-01-07T09:20:11;15.05;;;9.32;;
38859;SDS011;24609;48.316;16.174;2024-01-07T09:22:38;15.77;;;9.98;;
38859;SDS011;24609;48.316;16.174;2024-01-07T09:25:04;15.82;;;10.00;;
38859;SDS011;24609;48.316;16.174;2024-01-07T09:27:31;15.38;;;9.35;;
38859;SDS011;24609;48.316;16.174;2024-01-07T09:29:57;13.32;;;8.70;;
38859;SDS011;24609;48.316;16.174;2024-01-07T09:32:23;14.93;;;8.90;;
38859;SDS011;24609;48.316;16.174;2024-01-07T09:34:49;16.00;;;9.48;;
38859;SDS011;24609;48.316;16.174;2024-01-07T09:37:15;14.73;;;8.63;;
38859;SDS011;24609;48.316;16.174;2024-01-07T09:39:42;14.60;;;9.18;;
38859;SDS011;24609;48.316;16.174;2024-01-07T09:42:12;15.50;;;9.57;;
38859;SDS011;24609;48.316;16.174;2024-01-07T09:44:40;14.73;;;9.30;;
38859;SDS011;24609;48.316;16.174;2024-01-07T09:47:12;14.68;;;9.00;;
38859;SDS011;24609;48.316;16.174;2024-01-07T09:49:39;14.45;;;8.10;;
38859;SDS011;24609;48.316;16.174;2024-01-07T09:52:07;14.85;;;8.90;;
38859;SDS011;24609;48.316;16.174;2024-01-07T09:54:35;13.73;;;8.75;;
38859;SDS011;24609;48.316;16.174;2024-01-07T09:57:03;14.98;;;8.60;;
38859;SDS011;24609;48.316;16.174;2024-01-07T09:59:33;14.77;;;8.52;;
38859;SDS011;24609;48.316;16.174;2024-01-07T10:02:00;12.32;;;8.35;;
38859;SDS011;24609;48.316;16.174;2024-01-07T10:04:26;13.70;;;8.80;;
38859;SDS011;24609;48.316;16.174;2024-01-07T10:06:53;14.73;;;8.57;;
38859;SDS011;24609;48.316;16.174;2024-01-07T10:09:19;14.90;;;8.75;;
38859;SDS011;24609;48.316;16.174;2024-01-07T10:11:48;13.35;;;8.85;;
38859;SDS011;24609;48.316;16.174;2024-01-07T10:14:15;12.25;;;7.97;;
38859;SDS011;24609;48.316;16.174;2024-01-07T10:16:41;14.60;;;8.48;;
38859;SDS011;24609;48.316;16.174;2024-01-07T10:19:06;13.00;;;7.85;;
38859;SDS011;24609;48.316;16.174;2024-01-07T10:21:33;13.07;;;7.43;;
38859;SDS011;24609;48.316;16.174;2024-01-07T10:26:35;13.77;;;9.48;;
38859;SDS011;24609;48.316;16.174;2024-01-07T10:29:02;13.60;;;8.40;;
38859;SDS011;24609;48.316;16.174;2024-01-07T10:31:28;15.20;;;8.73;;
38859;SDS011;24609;48.316;16.174;2024-01-07T10:33:54;14.00;;;8.25;;
38859;SDS011;24609;48.316;16.174;2024-01-07T10:36:21;14.35;;;8.82;;
38859;SDS011;24609;48.316;16.174;2024-01-07T10:38:47;12.15;;;8.50;;
38859;SDS011;24609;48.316;16.174;2024-01-07T10:41:13;13.10;;;8.38;;
38859;SDS011;24609;48.316;16.174;2024-01-07T10:43:42;14.85;;;9.65;;
38859;SDS011;24609;48.316;16.174;2024-01-07T10:46:11;13.77;;;8.73;;
38859;SDS011;24609;48.316;16.174;2024-01-07T10:48:39;16.38;;;8.77;;
38859;SDS011;24609;48.316;16.174;2024-01-07T10:51:27;14.70;;;9.00;;
38859;SDS011;24609;48.316;16.174;2024-01-07T10:53:53;13.65;;;8.38;;
38859;SDS011;24609;48.316;16.174;2024-01-07T10:56:24;13.30;;;8.48;;
38859;SDS011;24609;48.316;16.174;2024-01-07T10:58:55;14.52;;;9.20;;
38859;SDS011;24609;48.316;16.174;2024-01-07T11:01:22;12.80;;;8.35;;
38859;SDS011;24609;48.316;16.174;2024-01-07T11:03:54;15.20;;;8.52;;
38859;SDS011;24609;48.316;16.174;2024-01-07T11:09:18;12.65;;;8.15;;
38859;SDS011;24609;48.316;16.174;2024-01-07T11:12:02;11.77;;;7.97;;
38859;SDS011;24609;48.316;16.174;2024-01-07T11:14:39;15.68;;;9.07;;
38859;SDS011;24609;48.316;16.174;2024-01-07T11:17:10;14.05;;;8.55;;
38859;SDS011;24609;48.316;16.174;2024-01-07T11:19:36;13.00;;;8.48;;
38859;SDS011;24609;48.316;16.174;2024-01-07T11:22:21;12.93;;;8.60;;
38859;SDS011;24609;48.316;16.174;2024-01-07T11:24:48;11.88;;;7.97;;
38859;SDS011;24609;48.316;16.174;2024-01-07T11:27:15;11.88;;;8.13;;
38859;SDS011;24609;48.316;16.174;2024-01-07T11:29:41;13.45;;;8.35;;
38859;SDS011;24609;48.316;16.174;2024-01-07T11:32:06;11.82;;;8.55;;
38859;SDS011;24609;48.316;16.174;2024-01-07T11:34:42;14.55;;;9.15;;
38859;SDS011;24609;48.316;16.174;2024-01-07T11:37:12;14.80;;;9.30;;
38859;SDS011;24609;48.316;16.174;2024-01-07T11:39:44;12.45;;;8.35;;
38859;SDS011;24609;48.316;16.174;2024-01-07T11:42:11;14.07;;;8.98;;
38859;SDS011;24609;48.316;16.174;2024-01-07T11:44:37;13.95;;;9.10;;
38859;SDS011;24609;48.316;16.174;2024-01-07T11:47:09;16.08;;;9.02;;
38859;SDS011;24609;48.316;16.174;2024-01-07T11:49:35;14.65;;;9.90;;
38859;SDS011;24609;48.316;16.174;2024-01-07T11:52:01;16.60;;;10.07;;
38859;SDS011;24609;48.316;16.174;2024-01-07T11:54:29;17.52;;;11.23;;
38859;SDS011;24609;48.316;16.174;2024-01-07T11:56:54;16.75;;;10.98;;
38859;SDS011;24609;48.316;16.174;2024-01-07T11:59:21;17.27;;;10.25;;
38859;SDS011;24609;48.316;16.174;2024-01-07T12:01:47;15.93;;;10.75;;
38859;SDS011;24609;48.316;16.174;2024-01-07T12:04:12;15.55;;;10.02;;
38859;SDS011;24609;48.316;16.174;2024-01-07T12:06:38;16.02;;;10.20;;
38859;SDS011;24609;48.316;16.174;2024-01-07T12:09:05;16.95;;;10.52;;
38859;SDS011;24609;48.316;16.174;2024-01-07T12:11:31;16.25;;;10.75;;
38859;SDS011;24609;48.316;16.174;2024-01-07T12:13:57;14.20;;;9.95;;
38859;SDS011;24609;48.316;16.174;2024-01-07T12:16:23;16.42;;;10.20;;
38859;SDS011;24609;48.316;16.174;2024-01-07T12:18:49;15.30;;;9.90;;
38859;SDS011;24609;48.316;16.174;2024-01-07T12:21:19;15.45;;;10.48;;
38859;SDS011;24609;48.316;16.174;2024-01-07T12:23:47;16.73;;;10.40;;
38859;SDS011;24609;48.316;16.174;2024-01-07T12:26:15;14.73;;;10.63;;
38859;SDS011;24609;48.316;16.174;2024-01-07T12:28:41;17.65;;;11.15;;
38859;SDS011;24609;48.316;16.174;2024-01-07T12:31:07;16.30;;;10.75;;
38859;SDS011;24609;48.316;16.174;2024-01-07T12:33:36;17.13;;;10.68;;
38859;SDS011;24609;48.316;16.174;2024-01-07T12:36:03;16.25;;;10.52;;
38859;SDS011;24609;48.316;16.174;2024-01-07T12:38:29;20.23;;;11.02;;
38859;SDS011;24609;48.316;16.174;2024-01-07T12:40:55;19.35;;;11.30;;
38859;SDS011;24609;48.316;16.174;2024-01-07T12:43:21;16.75;;;10.65;;
38859;SDS011;24609;48.316;16.174;2024-01-07T12:48:16;16.73;;;10.38;;
38859;SDS011;24609;48.316;16.174;2024-01-07T12:50:41;18.63;;;11.05;;
38859;SDS011;24609;48.316;16.174;2024-01-07T12:53:07;18.67;;;10.35;;
38859;SDS011;24609;48.316;16.174;2024-01-07T12:55:32;18.23;;;10.52;;
38859;SDS011;24609;48.316;16.174;2024-01-07T12:57:58;15.13;;;11.18;;
38859;SDS011;24609;48.316;16.174;2024-01-07T13:00:24;17.77;;;11.73;;
38859;SDS011;24609;48.316;16.174;2024-01-07T13:02:53;18.30;;;11.80;;
38859;SDS011;24609;48.316;16.174;2024-01-07T13:05:19;17.13;;;11.02;;
38859;SDS011;24609;48.316;16.174;2024-01-07T13:07:45;19.83;;;11.63;;
38859;SDS011;24609;48.316;16.174;2024-01-07T13:10:15;18.65;;;10.93;;
38859;SDS011;24609;48.316;16.174;2024-01-07T13:12:40;16.63;;;10.38;;
38859;SDS011;24609;48.316;16.174;2024-01-07T13:15:07;20.08;;;11.45;;
38859;SDS011;24609;48.316;16.174;2024-01-07T13:17:33;19.25;;;12.07;;
38859;SDS011;24609;48.316;16.174;2024-01-07T13:19:59;16.67;;;10.95;;
38859;SDS011;24609;48.316;16.174;2024-01-07T13:22:25;18.77;;;11.43;;
38859;SDS011;24609;48.316;16.174;2024-01-07T13:24:51;15.95;;;10.82;;
38859;SDS011;24609;48.316;16.174;2024-01-07T13:27:19;15.85;;;10.52;;
38859;SDS011;24609;48.316;16.174;2024-01-07T13:29:47;18.38;;;10.93;;
38859;SDS011;24609;48.316;16.174;2024-01-07T13:32:13;17.33;;;10.57;;
38859;SDS011;24609;48.316;16.174;2024-01-07T13:34:44;14.90;;;10.25;;
38859;SDS011;24609;48.316;16.174;2024-01-07T13:37:10;15.20;;;10.38;;
38859;SDS011;24609;48.316;16.174;2024-01-07T13:39:36;15.15;;;10.27;;
38859;SDS011;24609;48.316;16.174;2024-01-07T13:42:03;17.98;;;11.13;;
38859;SDS011;24609;48.316;16.174;2024-01-07T13:44:29;16.73;;;9.70;;
38859;SDS011;24609;48.316;16.174;2024-01-07T13:46:55;17.63;;;11.68;;
38859;SDS011;24609;48.316;16.174;2024-01-07T13:49:21;16.67;;;10.40;;
38859;SDS011;24609;48.316;16.174;2024-01-07T13:51:47;17.60;;;10.77;;
38859;SDS011;24609;48.316;16.174;2024-01-07T13:54:12;16.58;;;9.93;;
38859;SDS011;24609;48.316;16.174;2024-01-07T13:56:42;18.73;;;10.60;;
38859;SDS011;24609;48.316;16.174;2024-01-07T13:59:09;15.02;;;10.77;;
38859;SDS011;24609;48.316;16.174;2024-01-07T14:01:35;16.70;;;10.95;;
38859;SDS011;24609;48.316;16.174;2024-01-07T14:04:01;16.65;;;10.60;;
38859;SDS011;24609;48.316;16.174;2024-01-07T14:06:28;15.43;;;10.10;;
38859;SDS011;24609;48.316;16.174;2024-01-07T14:08:53;16.10;;;10.63;;
38859;SDS011;24609;48.316;16.174;2024-01-07T14:11:19;17.00;;;11.15;;
38859;SDS011;24609;48.316;16.174;2024-01-07T14:13:46;17.25;;;11.05;;
38859;SDS011;24609;48.316;16.174;2024-01-07T14:16:12;14.52;;;10.50;;
38859;SDS011;24609;48.316;16.174;2024-01-07T14:18:38;17.17;;;11.00;;
38859;SDS011;24609;48.316;16.174;2024-01-07T14:21:04;15.32;;;10.63;;
38859;SDS011;24609;48.316;16.174;2024-01-07T14:23:30;16.83;;;10.75;;